createdAt,value
2022-10-31T00:01:20.725Z,3.08
2022-10-31T00:03:48.447Z,3.55
2022-10-31T00:06:16.142Z,2.50
2022-10-31T00:08:43.639Z,3.03
2022-10-31T00:11:11.729Z,2.88
2022-10-31T00:13:40.740Z,3.08
2022-10-31T00:16:16.001Z,2.97
2022-10-31T00:18:43.568Z,2.60
2022-10-31T00:21:11.107Z,3.03
2022-10-31T00:23:38.714Z,2.50
2022-10-31T00:26:07.830Z,3.10
2022-10-31T00:28:35.896Z,3.25
2022-10-31T00:31:06.785Z,3.05
2022-10-31T00:33:37.450Z,2.70
2022-10-31T00:36:06.549Z,3.10
2022-10-31T00:38:34.309Z,3.00
2022-10-31T00:41:01.873Z,2.90
2022-10-31T00:43:29.551Z,2.67
2022-10-31T00:45:57.229Z,2.70
2022-10-31T00:48:27.331Z,2.90
2022-10-31T00:50:55.258Z,2.70
2022-10-31T00:53:24.526Z,2.90
2022-10-31T00:55:52.129Z,2.95
2022-10-31T00:58:20.399Z,2.95
2022-10-31T01:00:55.650Z,2.60
2022-10-31T01:03:24.347Z,2.80
2022-10-31T01:06:00.923Z,3.10
2022-10-31T01:08:29.413Z,2.53
2022-10-31T01:11:02.218Z,2.70
2022-10-31T01:13:29.865Z,2.63
2022-10-31T01:15:58.148Z,2.80
2022-10-31T01:18:27.178Z,2.92
2022-10-31T01:21:04.400Z,2.75
2022-10-31T01:23:32.738Z,2.67
2022-10-31T01:26:06.620Z,2.55
2022-10-31T01:28:35.011Z,2.38
2022-10-31T01:31:04.057Z,2.30
2022-10-31T01:33:31.633Z,2.13
2022-10-31T01:35:59.286Z,2.50
2022-10-31T01:38:28.218Z,2.50
2022-10-31T01:40:55.759Z,2.35
2022-10-31T01:43:23.279Z,2.55
2022-10-31T01:45:54.621Z,2.40
2022-10-31T01:48:27.083Z,2.95
2022-10-31T01:50:56.749Z,2.72
2022-10-31T01:53:26.971Z,2.70
2022-10-31T01:55:56.298Z,2.67
2022-10-31T01:58:28.507Z,2.72
2022-10-31T02:01:03.298Z,2.17
2022-10-31T02:03:34.939Z,2.50
2022-10-31T02:06:05.017Z,2.55
2022-10-31T02:08:35.204Z,2.40
2022-10-31T02:11:04.127Z,2.20
2022-10-31T02:13:32.147Z,2.33
2022-10-31T02:16:01.079Z,2.58
2022-10-31T02:18:32.293Z,2.30
2022-10-31T02:21:08.955Z,2.33
2022-10-31T02:24:10.638Z,2.42
2022-10-31T02:26:59.959Z,2.83
2022-10-31T02:30:04.244Z,2.40
2022-10-31T02:32:43.747Z,2.45
2022-10-31T02:35:19.082Z,2.30
2022-10-31T02:37:53.170Z,1.90
2022-10-31T02:40:25.468Z,2.20
2022-10-31T02:43:31.031Z,2.08
2022-10-31T02:46:03.794Z,2.42
2022-10-31T02:48:38.930Z,2.10
2022-10-31T02:51:07.689Z,2.40
2022-10-31T02:53:38.569Z,2.00
2022-10-31T02:56:13.062Z,2.15
2022-10-31T02:58:44.359Z,2.15
2022-10-31T03:01:26.757Z,2.33
2022-10-31T03:04:10.575Z,2.25
2022-10-31T03:06:43.452Z,2.20
2022-10-31T03:09:22.872Z,2.17
2022-10-31T03:11:59.490Z,2.67
2022-10-31T03:14:37.897Z,2.10
2022-10-31T03:17:09.430Z,2.10
2022-10-31T03:19:41.984Z,2.65
2022-10-31T03:22:17.348Z,2.10
2022-10-31T03:24:46.707Z,2.45
2022-10-31T03:27:20.055Z,2.20
2022-10-31T03:29:51.066Z,2.58
2022-10-31T03:32:23.583Z,2.60
2022-10-31T03:34:56.585Z,2.55
2022-10-31T03:37:27.721Z,2.90
2022-10-31T03:39:57.243Z,2.03
2022-10-31T03:42:27.466Z,2.22
2022-10-31T03:45:00.799Z,2.83
2022-10-31T03:47:29.303Z,2.10
2022-10-31T03:49:59.008Z,2.05
2022-10-31T03:52:32.531Z,2.90
2022-10-31T03:55:07.607Z,2.72
2022-10-31T03:57:39.165Z,3.67
2022-10-31T04:00:10.897Z,1.67
2022-10-31T04:02:52.167Z,2.40
2022-10-31T04:05:22.499Z,2.33
2022-10-31T04:07:56.566Z,2.83
2022-10-31T04:10:30.224Z,2.25
2022-10-31T04:13:05.572Z,2.35
2022-10-31T04:15:56.620Z,1.90
2022-10-31T04:18:25.030Z,2.35
2022-10-31T04:21:01.986Z,2.45
2022-10-31T04:23:30.463Z,2.58
2022-10-31T04:25:58.409Z,2.17
2022-10-31T04:28:25.993Z,2.00
2022-10-31T04:30:54.279Z,2.22
2022-10-31T04:33:23.561Z,2.00
2022-10-31T04:35:51.819Z,2.30
2022-10-31T04:38:20.943Z,2.60
2022-10-31T04:40:49.959Z,2.08
2022-10-31T04:43:36.023Z,2.00
2022-10-31T04:46:03.647Z,1.88
2022-10-31T04:48:31.494Z,1.95
2022-10-31T04:51:02.174Z,2.10
2022-10-31T04:53:31.579Z,2.33
2022-10-31T04:56:19.069Z,2.50
2022-10-31T04:58:49.114Z,3.30
2022-10-31T05:01:16.965Z,2.42
2022-10-31T05:03:46.230Z,1.88
2022-10-31T05:06:13.841Z,2.30
2022-10-31T05:08:44.635Z,2.25
2022-10-31T05:11:13.157Z,2.25
2022-10-31T05:13:40.942Z,1.92
2022-10-31T05:16:11.011Z,2.33
2022-10-31T05:19:16.889Z,2.42
2022-10-31T05:22:03.213Z,2.17
2022-10-31T05:24:32.119Z,2.33
2022-10-31T05:26:59.648Z,2.03
2022-10-31T05:29:27.199Z,2.35
2022-10-31T05:31:54.851Z,2.30
2022-10-31T05:35:00.399Z,1.92
2022-10-31T05:37:46.398Z,2.40
2022-10-31T05:40:16.862Z,2.30
2022-10-31T05:42:45.290Z,2.92
2022-10-31T05:45:15.811Z,3.33
2022-10-31T05:47:53.644Z,2.45
2022-10-31T05:50:39.756Z,2.22
2022-10-31T05:53:11.082Z,2.30
2022-10-31T05:55:41.537Z,2.13
2022-10-31T05:58:19.351Z,2.50
2022-10-31T06:00:54.977Z,2.38
2022-10-31T06:03:22.613Z,2.38
2022-10-31T06:05:57.798Z,1.90
2022-10-31T06:08:30.752Z,2.00
2022-10-31T06:11:03.555Z,1.75
2022-10-31T06:13:49.683Z,2.13
2022-10-31T06:16:22.680Z,2.42
2022-10-31T06:18:51.529Z,3.88
2022-10-31T06:21:19.446Z,2.13
2022-10-31T06:23:49.478Z,2.70
2022-10-31T06:26:37.132Z,2.53
2022-10-31T06:29:04.896Z,2.40
2022-10-31T06:32:01.420Z,2.17
2022-10-31T06:34:30.292Z,2.45
2022-10-31T06:36:59.132Z,3.05
2022-10-31T06:39:28.539Z,2.40
2022-10-31T06:41:57.498Z,2.47
2022-10-31T06:44:27.291Z,3.20
2022-10-31T06:47:00.543Z,3.08
2022-10-31T06:49:46.751Z,5.32
2022-10-31T06:52:17.724Z,3.45
2022-10-31T06:54:45.286Z,2.88
2022-10-31T06:57:17.393Z,2.47
2022-10-31T06:59:45.833Z,2.55
2022-10-31T07:02:18.879Z,2.60
2022-10-31T07:04:46.487Z,2.60
2022-10-31T07:07:15.799Z,2.20
2022-10-31T07:09:43.449Z,2.10
2022-10-31T07:12:12.743Z,2.30
2022-10-31T07:14:51.634Z,1.88
2022-10-31T07:17:19.185Z,4.05
2022-10-31T07:19:47.354Z,5.40
2022-10-31T07:22:17.645Z,4.25
2022-10-31T07:24:45.790Z,3.60
2022-10-31T07:27:42.605Z,3.03
2022-10-31T07:30:14.805Z,2.45
2022-10-31T07:32:45.168Z,2.10
2022-10-31T07:35:17.686Z,2.20
2022-10-31T07:37:51.213Z,2.90
2022-10-31T07:40:20.263Z,2.42
2022-10-31T07:42:51.037Z,2.50
2022-10-31T07:45:53.134Z,2.80
2022-10-31T07:48:39.256Z,2.40
2022-10-31T07:51:25.769Z,2.53
2022-10-31T07:54:12.510Z,2.40
2022-10-31T07:56:40.604Z,2.70
2022-10-31T07:59:08.724Z,2.58
2022-10-31T08:01:37.601Z,2.55
2022-10-31T08:04:25.095Z,2.22
2022-10-31T08:07:11.284Z,3.03
2022-10-31T08:09:41.033Z,2.58
2022-10-31T08:12:19.496Z,2.95
2022-10-31T08:14:47.647Z,3.13
2022-10-31T08:17:19.307Z,2.75
2022-10-31T08:19:53.309Z,2.88
2022-10-31T08:22:24.884Z,2.75
2022-10-31T08:24:52.493Z,2.50
2022-10-31T08:27:20.075Z,2.25
2022-10-31T08:29:47.814Z,2.40
2022-10-31T08:32:15.578Z,2.40
2022-10-31T08:35:04.683Z,2.83
2022-10-31T08:37:32.278Z,2.60
2022-10-31T08:39:59.968Z,2.88
2022-10-31T08:42:27.597Z,2.63
2022-10-31T08:44:55.136Z,3.95
2022-10-31T08:47:23.668Z,3.28
2022-10-31T08:49:51.318Z,2.90
2022-10-31T08:52:21.580Z,3.25
2022-10-31T08:54:49.397Z,4.45
2022-10-31T08:57:56.930Z,4.57
2022-10-31T09:00:25.627Z,4.60
2022-10-31T09:03:10.920Z,4.35
2022-10-31T09:05:38.543Z,3.35
2022-10-31T09:08:14.752Z,4.03
2022-10-31T09:10:45.897Z,3.25
2022-10-31T09:13:18.676Z,2.65
2022-10-31T09:16:21.790Z,2.83
2022-10-31T09:18:49.388Z,3.10
2022-10-31T09:21:18.043Z,2.97
2022-10-31T09:23:48.800Z,3.05
2022-10-31T09:26:16.598Z,2.70
2022-10-31T09:29:04.518Z,3.28
2022-10-31T09:31:33.124Z,4.00
2022-10-31T09:34:05.849Z,3.60
2022-10-31T09:36:40.007Z,3.33
2022-10-31T09:39:16.150Z,3.10
2022-10-31T09:41:59.149Z,3.08
2022-10-31T09:47:07.023Z,3.30
2022-10-31T09:49:52.612Z,3.10
2022-10-31T09:52:25.396Z,3.13
2022-10-31T09:55:02.441Z,2.78
2022-10-31T09:57:35.064Z,3.05
2022-10-31T10:00:06.388Z,2.33
2022-10-31T10:02:46.430Z,3.47
2022-10-31T10:05:18.238Z,2.40
2022-10-31T10:07:54.799Z,2.50
2022-10-31T10:10:50.884Z,2.80
2022-10-31T10:13:57.066Z,2.95
2022-10-31T10:16:38.757Z,3.17
2022-10-31T10:19:21.156Z,3.17
2022-10-31T10:21:58.391Z,2.47
2022-10-31T10:24:38.926Z,2.55
2022-10-31T10:27:30.029Z,2.60
2022-10-31T10:30:04.673Z,2.72
2022-10-31T10:32:38.558Z,2.80
2022-10-31T10:35:19.196Z,3.30
2022-10-31T10:37:51.493Z,3.05
2022-10-31T10:40:22.852Z,3.30
2022-10-31T10:43:21.529Z,3.15
2022-10-31T10:46:11.875Z,3.45
2022-10-31T10:48:45.334Z,3.15
2022-10-31T10:51:38.991Z,3.63
2022-10-31T10:54:22.661Z,3.40
2022-10-31T10:57:00.400Z,3.33
2022-10-31T10:59:31.360Z,5.22
2022-10-31T11:02:00.675Z,4.03
2022-10-31T11:04:33.937Z,2.50
2022-10-31T11:07:03.836Z,2.72
2022-10-31T11:09:31.616Z,2.38
2022-10-31T11:12:00.201Z,1.95
2022-10-31T11:14:30.428Z,2.17
2022-10-31T11:17:17.816Z,2.17
2022-10-31T11:19:45.595Z,2.50
2022-10-31T11:22:18.693Z,2.50
2022-10-31T11:24:47.844Z,2.70
2022-10-31T11:27:18.430Z,2.72
2022-10-31T11:29:47.645Z,2.75
2022-10-31T11:32:22.060Z,2.90
2022-10-31T11:34:53.711Z,2.45
2022-10-31T11:37:24.234Z,2.53
2022-10-31T11:39:55.026Z,3.45
2022-10-31T11:42:25.080Z,2.35
2022-10-31T11:44:56.941Z,2.03
2022-10-31T11:47:29.220Z,2.40
2022-10-31T11:49:58.720Z,2.00
2022-10-31T11:52:29.180Z,2.83
2022-10-31T11:54:59.368Z,2.30
2022-10-31T11:57:29.695Z,2.70
2022-10-31T12:00:01.118Z,2.20
2022-10-31T12:02:29.290Z,3.17
2022-10-31T12:05:04.573Z,2.33
2022-10-31T12:07:32.544Z,2.55
2022-10-31T12:10:00.182Z,2.30
2022-10-31T12:12:50.628Z,2.40
2022-10-31T12:15:30.894Z,2.05
2022-10-31T12:18:14.391Z,1.98
2022-10-31T12:20:52.369Z,2.38
2022-10-31T12:23:28.171Z,2.10
2022-10-31T12:26:14.555Z,3.50
2022-10-31T12:28:58.678Z,2.40
2022-10-31T12:31:41.172Z,2.50
2022-10-31T12:34:55.459Z,2.33
2022-10-31T12:37:37.699Z,2.42
2022-10-31T12:40:21.890Z,2.20
2022-10-31T12:43:04.052Z,2.40
2022-10-31T12:45:55.481Z,2.58
2022-10-31T12:48:57.259Z,2.58
2022-10-31T12:51:34.687Z,2.78
2022-10-31T12:54:21.458Z,2.78
2022-10-31T12:56:58.715Z,2.90
2022-10-31T12:59:32.455Z,3.17
2022-10-31T13:02:10.899Z,3.40
2022-10-31T13:04:46.215Z,2.97
2022-10-31T13:07:20.584Z,3.15
2022-10-31T13:09:55.410Z,3.80
2022-10-31T13:12:24.613Z,3.70
2022-10-31T13:14:55.573Z,3.33
2022-10-31T13:17:31.913Z,3.00
2022-10-31T13:20:14.267Z,2.95
2022-10-31T13:22:45.874Z,3.00
2022-10-31T13:25:17.794Z,3.58
2022-10-31T13:27:51.366Z,2.72
2022-10-31T13:30:22.094Z,3.00
2022-10-31T13:32:53.482Z,2.75
2022-10-31T13:35:29.940Z,2.53
2022-10-31T13:38:16.184Z,2.63
2022-10-31T13:40:52.449Z,2.83
2022-10-31T13:43:29.350Z,2.42
2022-10-31T13:45:57.733Z,2.47
2022-10-31T13:48:37.219Z,2.83
2022-10-31T13:51:08.471Z,2.67
2022-10-31T13:53:42.959Z,2.83
2022-10-31T13:56:20.641Z,3.05
2022-10-31T13:59:20.507Z,3.13
2022-10-31T14:01:51.699Z,3.25
2022-10-31T14:04:25.279Z,3.70
2022-10-31T14:06:59.556Z,3.22
2022-10-31T14:09:35.803Z,3.58
2022-10-31T14:12:06.881Z,3.00
2022-10-31T14:14:43.407Z,2.90
2022-10-31T14:17:20.411Z,2.90
2022-10-31T14:20:00.957Z,3.08
2022-10-31T14:22:32.896Z,3.38
2022-10-31T14:25:00.631Z,3.45
2022-10-31T14:27:53.235Z,3.17
2022-10-31T14:30:23.882Z,3.08
2022-10-31T14:32:54.904Z,3.08
2022-10-31T14:35:28.367Z,2.72
2022-10-31T14:38:13.603Z,3.75
2022-10-31T14:41:01.238Z,2.80
2022-10-31T14:43:41.102Z,3.20
2022-10-31T14:46:17.685Z,3.83
2022-10-31T14:49:00.280Z,3.03
2022-10-31T14:51:40.426Z,3.10
2022-10-31T14:54:16.270Z,3.70
2022-10-31T14:56:50.191Z,3.00
2022-10-31T14:59:24.229Z,3.25
2022-10-31T15:01:58.196Z,2.78
2022-10-31T15:04:27.992Z,2.85
2022-10-31T15:07:02.766Z,2.83
2022-10-31T15:09:33.870Z,2.95
2022-10-31T15:12:02.398Z,2.90
2022-10-31T15:14:32.101Z,3.03
2022-10-31T15:17:02.942Z,3.15
2022-10-31T15:19:34.463Z,3.15
2022-10-31T15:22:02.601Z,2.63
2022-10-31T15:24:35.843Z,4.10
2022-10-31T15:27:05.286Z,3.83
2022-10-31T15:29:33.793Z,3.83
2022-10-31T15:32:02.833Z,4.15
2022-10-31T15:34:37.710Z,3.78
2022-10-31T15:37:05.701Z,3.65
2022-10-31T15:39:35.302Z,2.55
2022-10-31T15:42:03.539Z,9.27
2022-10-31T15:44:33.755Z,4.63
2022-10-31T15:47:03.945Z,2.95
2022-10-31T15:49:37.139Z,3.05
2022-10-31T15:52:09.119Z,3.13
2022-10-31T15:54:45.593Z,3.40
2022-10-31T15:57:14.024Z,3.65
2022-10-31T15:59:44.835Z,2.90
2022-10-31T16:02:14.894Z,3.45
2022-10-31T16:04:51.167Z,3.20
2022-10-31T16:07:23.172Z,2.65
2022-10-31T16:09:55.055Z,3.40
2022-10-31T16:12:23.355Z,2.50
2022-10-31T16:14:52.632Z,2.72
2022-10-31T16:17:23.680Z,3.03
2022-10-31T16:19:56.178Z,3.22
2022-10-31T16:22:28.373Z,3.63
2022-10-31T16:25:02.905Z,5.28
2022-10-31T16:27:33.630Z,7.03
2022-10-31T16:30:05.241Z,5.10
2022-10-31T16:32:36.080Z,4.28
2022-10-31T16:35:20.754Z,3.90
2022-10-31T16:37:48.517Z,3.88
2022-10-31T16:40:18.607Z,4.05
2022-10-31T16:42:48.051Z,3.90
2022-10-31T16:45:18.559Z,3.67
2022-10-31T16:47:46.439Z,6.70
2022-10-31T16:50:17.132Z,5.10
2022-10-31T16:53:08.414Z,4.90
2022-10-31T16:55:35.845Z,4.28
2022-10-31T16:58:04.150Z,3.83
2022-10-31T17:00:32.538Z,5.43
2022-10-31T17:03:00.122Z,6.13
2022-10-31T17:05:30.147Z,5.20
2022-10-31T17:07:58.304Z,5.10
2022-10-31T17:10:27.290Z,3.50
2022-10-31T17:12:57.734Z,3.55
2022-10-31T17:15:27.659Z,3.67
2022-10-31T17:17:55.985Z,4.68
2022-10-31T17:20:26.534Z,4.10
2022-10-31T17:22:54.542Z,4.78
2022-10-31T17:25:24.506Z,3.92
2022-10-31T17:27:52.875Z,4.90
2022-10-31T17:30:23.410Z,4.30
2022-10-31T17:32:51.721Z,4.15
2022-10-31T17:35:20.189Z,5.10
2022-10-31T17:37:48.327Z,4.82
2022-10-31T17:40:17.998Z,5.25
2022-10-31T17:42:50.449Z,4.55
2022-10-31T17:45:18.367Z,4.72
2022-10-31T17:47:49.552Z,4.95
2022-10-31T17:50:17.527Z,4.85
2022-10-31T17:52:45.071Z,4.70
2022-10-31T17:55:12.955Z,6.22
2022-10-31T17:57:41.017Z,5.10
2022-10-31T18:00:11.538Z,7.00
2022-10-31T18:02:39.431Z,5.32
2022-10-31T18:05:09.203Z,9.32
2022-10-31T18:07:36.819Z,7.63
2022-10-31T18:10:05.194Z,6.82
2022-10-31T18:12:33.015Z,5.78
2022-10-31T18:15:00.554Z,6.07
2022-10-31T18:17:28.123Z,7.15
2022-10-31T18:19:55.754Z,5.68
2022-10-31T18:22:24.659Z,12.57
2022-10-31T18:24:52.190Z,5.95
2022-10-31T18:27:19.714Z,5.75
2022-10-31T18:29:47.266Z,7.30
2022-10-31T18:32:14.901Z,7.25
2022-10-31T18:34:42.424Z,11.80
2022-10-31T18:37:10.076Z,11.25
2022-10-31T18:39:38.927Z,12.05
2022-10-31T18:42:06.543Z,10.63
2022-10-31T18:44:34.257Z,39.92
2022-10-31T18:47:01.794Z,14.23
2022-10-31T18:49:32.591Z,8.63
2022-10-31T18:52:00.563Z,7.07
2022-10-31T18:54:28.127Z,6.97
2022-10-31T18:56:56.985Z,9.00
2022-10-31T18:59:24.514Z,12.02
2022-10-31T19:01:52.190Z,11.88
2022-10-31T19:04:19.992Z,21.48
2022-10-31T19:06:47.512Z,18.83
2022-10-31T19:09:15.172Z,16.02
2022-10-31T19:11:42.673Z,14.40
2022-10-31T19:14:14.710Z,13.27
2022-10-31T19:16:42.248Z,11.65
2022-10-31T19:19:10.537Z,10.32
2022-10-31T19:21:38.096Z,9.38
2022-10-31T19:24:06.339Z,9.93
2022-10-31T19:26:34.842Z,9.63
2022-10-31T19:29:02.605Z,8.77
2022-10-31T19:31:31.507Z,9.80
2022-10-31T19:33:59.066Z,9.05
2022-10-31T19:36:27.534Z,9.60
2022-10-31T19:38:55.092Z,8.77
2022-10-31T19:41:24.662Z,8.27
2022-10-31T19:43:52.361Z,8.80
2022-10-31T19:46:40.453Z,8.85
2022-10-31T19:49:11.716Z,8.02
2022-10-31T19:51:39.228Z,7.90
2022-10-31T19:54:07.608Z,8.32
2022-10-31T19:56:35.525Z,9.88
2022-10-31T19:59:03.938Z,8.40
2022-10-31T20:01:31.642Z,8.57
2022-10-31T20:03:59.291Z,8.70
2022-10-31T20:06:31.894Z,8.02
2022-10-31T20:08:59.936Z,8.47
2022-10-31T20:11:29.025Z,6.95
2022-10-31T20:13:57.862Z,8.85
2022-10-31T20:16:26.338Z,10.35
2022-10-31T20:18:54.017Z,7.93
2022-10-31T20:21:24.622Z,8.18
2022-10-31T20:23:57.628Z,7.80
2022-10-31T20:26:25.858Z,8.27
2022-10-31T20:28:53.803Z,7.47
2022-10-31T20:31:24.695Z,9.15
2022-10-31T20:33:53.360Z,8.18
2022-10-31T20:36:22.864Z,7.70
2022-10-31T20:38:51.348Z,10.35
2022-10-31T20:41:20.995Z,10.02
2022-10-31T20:43:49.160Z,9.63
2022-10-31T20:46:18.492Z,9.13
2022-10-31T20:48:46.836Z,8.68
2022-10-31T20:53:49.603Z,7.82
2022-10-31T20:56:21.289Z,16.13
2022-10-31T20:58:49.346Z,20.95
2022-10-31T21:01:19.220Z,9.43
2022-10-31T21:03:47.631Z,7.60
2022-10-31T21:06:16.061Z,6.70
2022-10-31T21:08:44.291Z,6.80
2022-10-31T21:11:13.787Z,6.40
2022-10-31T21:13:45.075Z,7.90
2022-10-31T21:16:15.098Z,6.93
2022-10-31T21:18:45.255Z,6.53
2022-10-31T21:21:14.721Z,7.32
2022-10-31T21:23:43.973Z,6.03
2022-10-31T21:26:14.655Z,6.40
2022-10-31T21:28:43.639Z,6.47
2022-10-31T21:31:13.705Z,6.38
2022-10-31T21:33:41.347Z,7.00
2022-10-31T21:36:09.657Z,7.53
2022-10-31T21:38:38.678Z,7.13
2022-10-31T21:41:09.370Z,7.80
2022-10-31T21:43:37.895Z,8.35
2022-10-31T21:46:08.501Z,18.58
2022-10-31T21:48:39.032Z,15.73
2022-10-31T21:51:08.943Z,9.80
2022-10-31T21:53:54.802Z,8.93
2022-10-31T21:56:23.007Z,8.15
2022-10-31T21:58:51.218Z,8.43
2022-10-31T22:01:20.861Z,8.23
2022-10-31T22:03:49.082Z,9.18
2022-10-31T22:06:17.222Z,8.50
2022-10-31T22:08:44.987Z,9.07
2022-10-31T22:11:14.884Z,10.13
2022-10-31T22:13:43.786Z,8.38
2022-10-31T22:16:12.957Z,7.53
2022-10-31T22:18:42.784Z,7.32
2022-10-31T22:21:13.206Z,8.18
2022-10-31T22:23:41.345Z,7.15
2022-10-31T22:26:14.041Z,8.75
2022-10-31T22:28:42.418Z,7.83
2022-10-31T22:33:40.291Z,8.27
2022-10-31T22:36:12.858Z,8.45
2022-10-31T22:38:41.730Z,8.43
2022-10-31T22:41:11.015Z,9.45
2022-10-31T22:43:38.834Z,10.35
2022-10-31T22:46:08.317Z,11.00
2022-10-31T22:48:37.575Z,11.05
2022-10-31T22:51:06.391Z,14.20
2022-10-31T22:53:36.669Z,14.73
2022-10-31T22:56:05.182Z,13.85
2022-10-31T22:58:33.907Z,11.00
2022-10-31T23:01:06.772Z,10.90
2022-10-31T23:03:34.431Z,9.48
2022-10-31T23:06:03.269Z,7.10
2022-10-31T23:08:32.457Z,7.70
2022-10-31T23:11:01.352Z,8.02
2022-10-31T23:13:46.668Z,7.38
2022-10-31T23:16:18.243Z,6.95
2022-10-31T23:21:32.434Z,7.95
2022-10-31T23:24:00.175Z,7.35
2022-10-31T23:26:46.613Z,9.02
2022-10-31T23:29:14.138Z,8.85
2022-10-31T23:31:41.682Z,8.70
2022-10-31T23:34:10.133Z,14.60
2022-10-31T23:36:37.651Z,10.65
2022-10-31T23:39:05.212Z,8.70
2022-10-31T23:41:34.081Z,9.82
2022-10-31T23:44:01.579Z,10.30
2022-10-31T23:46:29.158Z,10.38
2022-10-31T23:48:56.694Z,11.20
2022-10-31T23:51:24.182Z,8.07
2022-10-31T23:53:51.811Z,6.90
2022-10-31T23:56:19.335Z,7.00
2022-10-31T23:58:48.198Z,7.15
